Lake Park, FL (33403)

5:10 AM EST on January 26, 2015 (GMT -0500)
Rybovich Boat Company | Change Station
CLOSE
Current Station
Personal Weather Station
Location: West Palm Beach, FL
Elevation: 10 ft
Nearby Weather Stations

Elev 10 ft 26.75 °N, 80.05 °W | Updated 11 seconds ago

Partly Cloudy
Partly Cloudy
53.2 °F
Feels Like 53.2 °F
N
1.4
Wind Variable Wind from SW
Gusts 4.0 mph

Today
High -- | Low -- °F
--% Chance of Precip.
Yesterday
High -- | Low -- °F
Precip. -- in
7:08 AM 5:57 PM
Waxing Crescent, 41% visible
Pressure 29.93 in
Visibility 10.0 miles
Clouds Mostly Cloudy 5000 ft
Dew Point 50 °F
Humidity 92%
Rainfall 0.00 in
Snow Depth Not available.
UV 0 out of 12
Pollen 8.00 out of 12
Air Quality Not available.
Flu Activity Not available.
METAR KPBI 260953Z 20004KT 10SM BKN050 12/10 A2993 RMK AO2 SLP133 T01170100

More Conditions Fewer Conditions

Pressure 29.93 in
Visibility 10.0 miles
Clouds Mostly Cloudy 5000 ft
Dew Point 50 °F
Humidity 92%
Rainfall 0.00 in
Snow Depth Not available.
UV 0 out of 12
Pollen 8.00 out of 12
Air Quality Not available.
Flu Activity Not available.
METAR KPBI 260953Z 20004KT 10SM BKN050 12/10 A2993 RMK AO2 SLP133 T01170100

More Conditions Fewer Conditions

10-Day Weather Forecast

Almanac

Astronomy

Jan. 26, 2015 Rise Set
Actual Time
Civil Twilight
Nautical Twilight
Astronomical Twilight
Moon
Length of Visible Light
Length of Day
Tomorrow will be .
, % of the Moon is Illuminated

Today's Extremes

State Highs State Lows

Community

WunderPhotos

Upload Photos

1,790,171 photos uploaded!

WunderBlogs® & News

Nearby

Air Quality

  Air Quality AQ Index Pollutant
Not available.

Snow Depth

Station Depth Elevation

Earthquake Activity

City Distance Mag. Time & Date
Minimum magnitude displayed is 2.5.

Coastal Water Temperatures

Place Temperature

Nearby Weather Stations